createdAt,value
2022-10-07T00:01:35.626Z,15.20
2022-10-07T00:04:02.422Z,15.20
2022-10-07T00:06:29.329Z,15.20
2022-10-07T00:08:56.150Z,15.30
2022-10-07T00:11:24.304Z,15.10
2022-10-07T00:13:55.173Z,15.10
2022-10-07T00:16:26.908Z,15.20
2022-10-07T00:21:40.755Z,15.20
2022-10-07T00:24:07.938Z,15.10
2022-10-07T00:26:35.726Z,15.00
2022-10-07T00:29:03.059Z,15.10
2022-10-07T00:31:31.319Z,15.10
2022-10-07T00:33:58.300Z,15.20
2022-10-07T00:36:29.657Z,15.30
2022-10-07T00:38:57.663Z,15.20
2022-10-07T00:41:29.205Z,15.10
2022-10-07T00:43:56.011Z,15.00
2022-10-07T00:46:25.556Z,14.90
2022-10-07T00:48:52.747Z,14.80
2022-10-07T00:51:19.688Z,14.90
2022-10-07T00:53:49.013Z,15.00
2022-10-07T00:56:17.811Z,15.00
2022-10-07T00:58:46.226Z,14.90
2022-10-07T01:01:12.959Z,14.90
2022-10-07T01:03:42.268Z,14.90
2022-10-07T01:06:10.428Z,14.80
2022-10-07T01:08:38.529Z,14.80
2022-10-07T01:11:28.347Z,14.80
2022-10-07T01:13:58.119Z,14.90
2022-10-07T01:16:24.846Z,14.90
2022-10-07T01:19:01.437Z,14.90
2022-10-07T01:21:40.353Z,14.80
2022-10-07T01:24:10.098Z,14.90
2022-10-07T01:26:39.954Z,15.00
2022-10-07T01:29:13.043Z,15.10
2022-10-07T01:31:47.001Z,15.10
2022-10-07T01:34:14.439Z,15.20
2022-10-07T01:36:42.965Z,15.10
2022-10-07T01:39:12.141Z,15.10
2022-10-07T01:41:39.786Z,15.00
2022-10-07T01:44:08.921Z,15.00
2022-10-07T01:46:37.986Z,15.10
2022-10-07T01:49:05.553Z,15.10
2022-10-07T01:51:37.950Z,15.10
2022-10-07T01:54:10.441Z,15.10
2022-10-07T01:56:54.140Z,15.20
2022-10-07T01:59:23.909Z,15.30
2022-10-07T02:01:56.755Z,15.30
2022-10-07T02:04:43.588Z,15.30
2022-10-07T02:07:13.330Z,15.20
2022-10-07T02:09:49.253Z,15.30
2022-10-07T02:12:23.276Z,15.30
2022-10-07T02:15:01.041Z,15.40
2022-10-07T02:17:29.452Z,15.50
2022-10-07T02:19:56.568Z,15.50
2022-10-07T02:22:25.954Z,15.50
2022-10-07T02:24:55.344Z,15.50
2022-10-07T02:27:25.143Z,15.50
2022-10-07T02:29:58.229Z,15.50
2022-10-07T02:32:26.633Z,15.50
2022-10-07T02:34:57.483Z,15.50
2022-10-07T02:37:28.839Z,15.40
2022-10-07T02:39:56.119Z,15.50
2022-10-07T02:42:29.115Z,15.40
2022-10-07T02:45:00.912Z,15.30
2022-10-07T02:47:33.333Z,15.40
2022-10-07T02:50:03.508Z,15.30
2022-10-07T02:52:31.358Z,15.30
2022-10-07T02:55:06.716Z,15.20
2022-10-07T02:57:35.561Z,15.20
2022-10-07T03:00:06.180Z,15.20
2022-10-07T03:02:49.087Z,15.20
2022-10-07T03:05:19.571Z,15.30
2022-10-07T03:07:49.699Z,15.30
2022-10-07T03:10:16.830Z,15.20
2022-10-07T03:12:44.131Z,15.30
2022-10-07T03:15:11.727Z,15.30
2022-10-07T03:17:39.369Z,15.10
2022-10-07T03:20:07.768Z,15.10
2022-10-07T03:22:35.056Z,15.10
2022-10-07T03:25:01.885Z,15.10
2022-10-07T03:27:29.181Z,15.00
2022-10-07T03:29:58.485Z,15.00
2022-10-07T03:32:27.291Z,15.00
2022-10-07T03:34:54.864Z,15.10
2022-10-07T03:37:22.497Z,15.10
2022-10-07T03:39:49.692Z,15.10
2022-10-07T03:42:17.203Z,15.00
2022-10-07T03:44:44.002Z,14.90
2022-10-07T03:47:11.419Z,14.90
2022-10-07T03:49:39.808Z,14.80
2022-10-07T03:52:06.784Z,14.90
2022-10-07T03:54:34.226Z,15.00
2022-10-07T03:57:01.268Z,15.00
2022-10-07T03:59:29.272Z,15.00
2022-10-07T04:01:56.126Z,15.10
2022-10-07T04:04:23.837Z,15.00
2022-10-07T04:06:51.482Z,14.90
2022-10-07T04:09:18.274Z,14.90
2022-10-07T04:11:45.117Z,14.90
2022-10-07T04:14:12.130Z,14.80
2022-10-07T04:16:40.630Z,14.80
2022-10-07T04:19:10.260Z,14.90
2022-10-07T04:21:37.108Z,14.90
2022-10-07T04:24:04.503Z,14.80
2022-10-07T04:26:31.849Z,14.80
2022-10-07T04:29:00.140Z,14.90
2022-10-07T04:31:27.464Z,15.00
2022-10-07T04:33:59.292Z,15.00
2022-10-07T04:36:32.769Z,15.00
2022-10-07T04:39:05.538Z,15.00
2022-10-07T04:41:36.091Z,15.00
2022-10-07T04:44:05.883Z,15.10
2022-10-07T04:46:37.740Z,15.10
2022-10-07T04:49:10.600Z,15.00
2022-10-07T04:51:37.781Z,15.10
2022-10-07T04:54:04.928Z,15.30
2022-10-07T04:56:38.171Z,15.40
2022-10-07T04:59:07.620Z,15.40
2022-10-07T05:01:36.521Z,15.60
2022-10-07T05:04:03.740Z,15.70
2022-10-07T05:06:32.836Z,15.70
2022-10-07T05:08:59.723Z,15.90
2022-10-07T05:11:26.986Z,15.80
2022-10-07T05:14:01.911Z,15.70
2022-10-07T05:16:30.126Z,15.70
2022-10-07T05:18:57.265Z,16.00
2022-10-07T05:21:23.965Z,15.80
2022-10-07T05:23:51.769Z,15.80
2022-10-07T05:26:24.326Z,15.50
2022-10-07T05:28:56.282Z,15.60
2022-10-07T05:31:29.905Z,15.60
2022-10-07T05:33:59.587Z,15.40
2022-10-07T05:36:27.217Z,15.50
2022-10-07T05:39:00.030Z,15.40
2022-10-07T05:41:44.949Z,15.50
2022-10-07T05:44:13.289Z,15.30
2022-10-07T05:46:40.425Z,15.40
2022-10-07T05:49:07.984Z,15.40
2022-10-07T05:51:36.010Z,15.40
2022-10-07T05:54:03.274Z,15.50
2022-10-07T05:56:38.385Z,15.50
2022-10-07T05:59:05.495Z,15.60
2022-10-07T06:01:32.282Z,15.60
2022-10-07T06:04:03.757Z,15.60
2022-10-07T06:06:34.799Z,15.60
2022-10-07T06:09:23.900Z,15.70
2022-10-07T06:12:09.511Z,15.60
2022-10-07T06:14:38.137Z,15.70
2022-10-07T06:17:06.830Z,15.70
2022-10-07T06:19:33.857Z,15.80
2022-10-07T06:22:03.260Z,15.90
2022-10-07T06:24:33.783Z,15.90
2022-10-07T06:27:01.149Z,15.90
2022-10-07T06:29:29.369Z,16.00
2022-10-07T06:31:56.697Z,16.10
2022-10-07T06:34:23.559Z,16.20
2022-10-07T06:36:50.982Z,16.30
2022-10-07T06:39:17.997Z,16.40
2022-10-07T06:41:47.406Z,16.60
2022-10-07T06:44:28.259Z,16.80
2022-10-07T06:46:56.072Z,16.90
2022-10-07T06:49:23.027Z,17.10
2022-10-07T06:51:50.911Z,17.20
2022-10-07T06:54:17.776Z,17.30
2022-10-07T06:56:44.871Z,17.50
2022-10-07T06:59:11.696Z,17.60
2022-10-07T07:01:49.336Z,17.80
2022-10-07T07:04:16.067Z,17.80
2022-10-07T07:06:42.965Z,18.00
2022-10-07T07:09:10.166Z,18.10
2022-10-07T07:11:44.219Z,18.30
2022-10-07T07:14:20.888Z,18.40
2022-10-07T07:16:54.615Z,18.50
2022-10-07T07:19:23.673Z,18.60
2022-10-07T07:21:51.445Z,18.80
2022-10-07T07:24:20.909Z,19.00
2022-10-07T07:26:48.434Z,19.10
2022-10-07T07:29:16.500Z,19.20
2022-10-07T07:31:57.356Z,19.40
2022-10-07T07:34:26.121Z,19.40
2022-10-07T07:36:53.014Z,19.40
2022-10-07T07:39:23.493Z,19.60
2022-10-07T07:41:56.346Z,19.70
2022-10-07T07:44:25.062Z,19.90
2022-10-07T07:46:55.653Z,20.00
2022-10-07T07:49:24.557Z,20.20
2022-10-07T07:51:52.058Z,20.20
2022-10-07T07:54:27.268Z,20.30
2022-10-07T07:56:55.240Z,20.40
2022-10-07T07:59:23.573Z,20.60
2022-10-07T08:01:51.561Z,20.70
2022-10-07T08:04:18.444Z,20.80
2022-10-07T08:06:45.627Z,20.80
2022-10-07T08:09:13.201Z,21.00
2022-10-07T08:11:45.854Z,21.00
2022-10-07T08:14:16.311Z,21.10
2022-10-07T08:16:43.991Z,21.20
2022-10-07T08:19:12.347Z,21.30
2022-10-07T08:21:39.736Z,21.40
2022-10-07T08:24:11.605Z,21.40
2022-10-07T08:26:39.587Z,21.60
2022-10-07T08:29:09.097Z,21.70
2022-10-07T08:31:35.934Z,21.80
2022-10-07T08:34:03.662Z,21.80
2022-10-07T08:36:32.854Z,21.90
2022-10-07T08:39:00.278Z,21.90
2022-10-07T08:41:28.520Z,22.00
2022-10-07T08:43:58.279Z,22.10
2022-10-07T08:46:29.935Z,22.20
2022-10-07T08:49:03.803Z,22.30
2022-10-07T08:51:38.865Z,22.30
2022-10-07T08:54:05.926Z,22.30
2022-10-07T08:56:33.392Z,22.30
2022-10-07T08:59:09.633Z,22.40
2022-10-07T09:01:39.365Z,22.50
2022-10-07T09:04:06.166Z,22.50
2022-10-07T09:06:35.939Z,22.70
2022-10-07T09:09:04.609Z,22.80
2022-10-07T09:11:32.602Z,22.80
2022-10-07T09:14:22.681Z,22.90
2022-10-07T09:16:51.225Z,23.00
2022-10-07T09:19:39.232Z,23.00
2022-10-07T09:22:21.307Z,23.10
2022-10-07T09:24:51.261Z,23.10
2022-10-07T09:27:20.178Z,23.10
2022-10-07T09:29:47.305Z,23.30
2022-10-07T09:32:17.319Z,23.30
2022-10-07T09:34:44.823Z,23.50
2022-10-07T09:37:24.735Z,23.70
2022-10-07T09:39:52.686Z,23.80
2022-10-07T09:42:28.845Z,24.00
2022-10-07T09:44:57.220Z,24.00
2022-10-07T09:47:25.223Z,24.00
2022-10-07T09:49:54.909Z,23.90
2022-10-07T09:52:31.706Z,24.10
2022-10-07T09:55:16.984Z,24.20
2022-10-07T09:57:44.222Z,24.30
2022-10-07T10:00:13.939Z,24.10
2022-10-07T10:02:41.902Z,24.30
2022-10-07T10:05:19.343Z,24.20
2022-10-07T10:07:47.623Z,24.50
2022-10-07T10:10:21.198Z,24.70
2022-10-07T10:12:49.618Z,24.80
2022-10-07T10:15:27.408Z,24.80
2022-10-07T10:17:56.914Z,24.70
2022-10-07T10:20:23.624Z,24.50
2022-10-07T10:22:50.938Z,24.00
2022-10-07T10:25:51.377Z,23.90
2022-10-07T10:28:26.092Z,24.20
2022-10-07T10:30:57.467Z,24.40
2022-10-07T10:33:31.230Z,24.40
2022-10-07T10:35:57.989Z,24.40
2022-10-07T10:38:33.210Z,24.90
2022-10-07T10:41:02.868Z,25.10
2022-10-07T10:43:58.656Z,24.90
2022-10-07T10:46:28.486Z,24.60
2022-10-07T10:48:58.173Z,24.60
2022-10-07T10:51:42.476Z,24.50
2022-10-07T10:54:10.343Z,24.40
2022-10-07T10:56:48.066Z,24.60
2022-10-07T10:59:30.241Z,24.60
2022-10-07T11:02:15.445Z,24.60
2022-10-07T11:04:45.547Z,24.40
2022-10-07T11:07:20.688Z,24.50
2022-10-07T11:10:07.686Z,24.40
2022-10-07T11:12:39.571Z,24.20
2022-10-07T11:15:24.259Z,24.50
2022-10-07T11:17:53.809Z,24.60
2022-10-07T11:20:25.279Z,24.90
2022-10-07T11:22:56.734Z,24.80
2022-10-07T11:25:44.433Z,25.00
2022-10-07T11:28:19.756Z,25.00
2022-10-07T11:31:00.351Z,24.90
2022-10-07T11:33:39.060Z,25.00
2022-10-07T11:36:20.609Z,24.70
2022-10-07T11:38:48.439Z,24.60
2022-10-07T11:41:23.022Z,24.80
2022-10-07T11:43:53.792Z,24.90
2022-10-07T11:46:34.825Z,25.20
2022-10-07T11:49:20.320Z,25.50
2022-10-07T11:52:04.118Z,25.50
2022-10-07T11:54:38.253Z,25.40
2022-10-07T11:57:05.234Z,25.40
2022-10-07T11:59:46.206Z,25.50
2022-10-07T12:02:28.219Z,25.30
2022-10-07T12:04:55.691Z,25.10
2022-10-07T12:07:40.618Z,25.10
2022-10-07T12:10:18.104Z,25.00
2022-10-07T12:12:45.548Z,24.80
2022-10-07T12:15:31.414Z,24.90
2022-10-07T12:18:01.741Z,24.90
2022-10-07T12:20:34.805Z,24.90
2022-10-07T12:23:16.862Z,24.80
2022-10-07T12:25:47.749Z,24.80
2022-10-07T12:28:17.485Z,24.80
2022-10-07T12:30:51.222Z,24.90
2022-10-07T12:33:37.122Z,24.90
2022-10-07T12:36:36.592Z,24.80
2022-10-07T12:39:07.926Z,24.90
2022-10-07T12:41:39.846Z,25.10
2022-10-07T12:44:08.792Z,25.30
2022-10-07T12:46:41.320Z,25.40
2022-10-07T12:49:20.332Z,25.30
2022-10-07T12:51:47.162Z,25.30
2022-10-07T12:54:20.259Z,25.30
2022-10-07T12:56:48.074Z,25.20
2022-10-07T12:59:48.669Z,25.30
2022-10-07T13:02:33.835Z,25.50
2022-10-07T13:05:12.711Z,25.50
2022-10-07T13:07:48.792Z,25.10
2022-10-07T13:10:18.675Z,25.20
2022-10-07T13:12:45.560Z,25.10
2022-10-07T13:15:24.699Z,25.10
2022-10-07T13:18:00.759Z,25.10
2022-10-07T13:20:36.627Z,25.30
2022-10-07T13:23:17.728Z,25.20
2022-10-07T13:25:51.119Z,25.00
2022-10-07T13:28:19.966Z,24.90
2022-10-07T13:30:47.046Z,24.90
2022-10-07T13:33:24.701Z,25.10
2022-10-07T13:35:52.279Z,25.30
2022-10-07T13:38:26.306Z,25.20
2022-10-07T13:40:54.498Z,25.10
2022-10-07T13:43:23.398Z,25.00
2022-10-07T13:45:50.779Z,24.90
2022-10-07T13:48:20.059Z,24.90
2022-10-07T13:50:48.842Z,25.00
2022-10-07T13:53:21.405Z,25.10
2022-10-07T13:55:48.301Z,24.90
2022-10-07T13:58:15.287Z,24.90
2022-10-07T14:00:44.459Z,24.90
2022-10-07T14:03:15.196Z,24.90
2022-10-07T14:05:50.064Z,24.80
2022-10-07T14:08:21.455Z,24.90
2022-10-07T14:10:51.198Z,25.10
2022-10-07T14:13:18.044Z,24.90
2022-10-07T14:15:55.253Z,24.90
2022-10-07T14:18:21.984Z,24.90
2022-10-07T14:20:53.007Z,25.10
2022-10-07T14:23:22.488Z,25.00
2022-10-07T14:25:57.384Z,24.80
2022-10-07T14:28:24.183Z,24.90
2022-10-07T14:31:25.256Z,24.90
2022-10-07T14:34:29.578Z,24.90
2022-10-07T14:37:03.417Z,25.00
2022-10-07T14:39:34.793Z,24.90
2022-10-07T14:42:01.766Z,25.10
2022-10-07T14:44:28.460Z,24.90
2022-10-07T14:47:12.133Z,24.80
2022-10-07T14:49:39.060Z,24.70
2022-10-07T14:52:06.171Z,24.60
2022-10-07T14:54:34.546Z,24.60
2022-10-07T14:57:01.362Z,24.50
2022-10-07T14:59:28.087Z,24.50
2022-10-07T15:01:54.885Z,24.50
2022-10-07T15:04:21.725Z,24.50
2022-10-07T15:06:50.995Z,24.40
2022-10-07T15:09:18.407Z,24.50
2022-10-07T15:11:45.248Z,24.40
2022-10-07T15:14:12.407Z,24.40
2022-10-07T15:16:39.293Z,24.50
2022-10-07T15:19:06.240Z,24.40
2022-10-07T15:21:33.116Z,24.40
2022-10-07T15:24:01.897Z,24.30
2022-10-07T15:26:28.614Z,24.20
2022-10-07T15:28:56.517Z,24.20
2022-10-07T15:31:26.103Z,24.20
2022-10-07T15:33:57.070Z,24.10
2022-10-07T15:36:25.316Z,23.90
2022-10-07T15:38:52.083Z,23.90
2022-10-07T15:41:30.871Z,23.80
2022-10-07T15:44:01.456Z,23.80
2022-10-07T15:46:28.219Z,23.70
2022-10-07T15:48:56.169Z,23.60
2022-10-07T15:51:23.880Z,23.70
2022-10-07T15:53:50.676Z,23.60
2022-10-07T15:56:17.679Z,23.60
2022-10-07T15:58:45.838Z,23.60
2022-10-07T16:01:12.650Z,23.40
2022-10-07T16:03:41.164Z,23.30
2022-10-07T16:06:10.171Z,23.00
2022-10-07T16:08:37.019Z,22.90
2022-10-07T16:11:07.564Z,22.70
2022-10-07T16:13:38.589Z,22.50
2022-10-07T16:16:07.352Z,22.30
2022-10-07T16:18:36.722Z,22.10
2022-10-07T16:21:14.387Z,21.90
2022-10-07T16:23:44.408Z,21.80
2022-10-07T16:26:15.559Z,21.60
2022-10-07T16:29:02.200Z,21.40
2022-10-07T16:31:30.813Z,21.20
2022-10-07T16:33:57.598Z,21.10
2022-10-07T16:36:25.422Z,20.90
2022-10-07T16:38:53.216Z,20.80
2022-10-07T16:41:21.133Z,20.70
2022-10-07T16:43:47.957Z,20.60
2022-10-07T16:46:15.729Z,20.50
2022-10-07T16:48:43.196Z,20.50
2022-10-07T16:51:10.613Z,20.30
2022-10-07T16:53:38.834Z,20.20
2022-10-07T16:56:06.024Z,20.10
2022-10-07T16:58:33.357Z,20.10
2022-10-07T17:01:01.117Z,20.20
2022-10-07T17:03:28.074Z,20.10
2022-10-07T17:05:55.475Z,19.90
2022-10-07T17:08:23.024Z,19.90
2022-10-07T17:10:49.769Z,19.80
2022-10-07T17:13:18.321Z,20.00
2022-10-07T17:15:50.397Z,19.80
2022-10-07T17:18:19.268Z,19.70
2022-10-07T17:20:49.552Z,19.80
2022-10-07T17:23:16.975Z,19.70
2022-10-07T17:25:46.155Z,19.60
2022-10-07T17:28:13.806Z,19.40
2022-10-07T17:30:41.202Z,19.40
2022-10-07T17:33:08.414Z,19.30
2022-10-07T17:35:35.428Z,19.30
2022-10-07T17:38:02.870Z,19.20
2022-10-07T17:40:34.337Z,19.20
2022-10-07T17:43:06.614Z,19.10
2022-10-07T17:45:37.168Z,19.10
2022-10-07T17:48:04.213Z,19.00
2022-10-07T17:50:31.418Z,19.00
2022-10-07T17:53:00.342Z,18.90
2022-10-07T17:55:27.209Z,18.80
2022-10-07T17:57:53.932Z,18.80
2022-10-07T18:00:20.623Z,18.90
2022-10-07T18:02:49.707Z,18.80
2022-10-07T18:05:16.644Z,18.70
2022-10-07T18:07:44.462Z,18.70
2022-10-07T18:10:11.335Z,18.70
2022-10-07T18:12:58.312Z,18.70
2022-10-07T18:15:25.036Z,18.60
2022-10-07T18:17:54.032Z,18.60
2022-10-07T18:20:21.774Z,18.60
2022-10-07T18:22:53.699Z,18.50
2022-10-07T18:25:20.433Z,18.50
2022-10-07T18:27:47.534Z,18.40
2022-10-07T18:30:14.772Z,18.50
2022-10-07T18:32:41.629Z,18.40
2022-10-07T18:35:08.861Z,18.30
2022-10-07T18:37:37.351Z,18.30
2022-10-07T18:40:04.338Z,18.40
2022-10-07T18:42:31.142Z,18.30
2022-10-07T18:44:57.958Z,18.40
2022-10-07T18:47:24.733Z,18.40
2022-10-07T18:49:51.896Z,18.40
2022-10-07T18:52:18.885Z,18.30
2022-10-07T18:54:45.680Z,18.30
2022-10-07T18:57:12.487Z,18.20
2022-10-07T18:59:39.212Z,18.20
2022-10-07T19:02:06.126Z,18.20
2022-10-07T19:04:32.956Z,18.20
2022-10-07T19:06:59.696Z,18.20
2022-10-07T19:09:26.529Z,18.20
2022-10-07T19:11:53.284Z,18.10
2022-10-07T19:14:20.357Z,18.20
2022-10-07T19:16:49.122Z,18.10
2022-10-07T19:19:18.011Z,18.10
2022-10-07T19:21:46.277Z,18.10
2022-10-07T19:24:13.783Z,18.10
2022-10-07T19:26:42.738Z,18.00
2022-10-07T19:29:10.777Z,18.00
2022-10-07T19:31:41.868Z,18.00
2022-10-07T19:34:18.710Z,17.90
2022-10-07T19:36:48.439Z,17.90
2022-10-07T19:39:16.141Z,17.90
2022-10-07T19:41:44.256Z,17.90
2022-10-07T19:44:11.739Z,17.80
2022-10-07T19:46:38.507Z,17.80
2022-10-07T19:49:07.128Z,17.80
2022-10-07T19:51:34.381Z,17.80
2022-10-07T19:54:02.040Z,17.80
2022-10-07T19:56:30.115Z,17.80
2022-10-07T19:58:58.504Z,17.80
2022-10-07T20:01:26.951Z,17.80
2022-10-07T20:03:58.011Z,17.80
2022-10-07T20:06:25.299Z,17.80
2022-10-07T20:08:52.544Z,17.80
2022-10-07T20:11:19.602Z,17.70
2022-10-07T20:13:46.385Z,17.70
2022-10-07T20:16:20.663Z,17.70
2022-10-07T20:18:48.661Z,17.70
2022-10-07T20:21:17.512Z,17.70
2022-10-07T20:23:45.190Z,17.60
2022-10-07T20:26:16.062Z,17.50
2022-10-07T20:28:42.846Z,17.50
2022-10-07T20:31:10.678Z,17.50
2022-10-07T20:33:42.081Z,17.50
2022-10-07T20:36:10.147Z,17.50
2022-10-07T20:38:56.493Z,17.40
2022-10-07T20:41:42.379Z,17.40
2022-10-07T20:44:09.311Z,17.40
2022-10-07T20:46:37.931Z,17.40
2022-10-07T20:49:11.259Z,17.40
2022-10-07T20:51:41.687Z,17.30
2022-10-07T20:54:08.371Z,17.40
2022-10-07T20:56:35.143Z,17.30
2022-10-07T20:59:01.908Z,17.30
2022-10-07T21:01:28.882Z,17.30
2022-10-07T21:03:56.080Z,17.30
2022-10-07T21:06:23.557Z,17.20
2022-10-07T21:08:54.106Z,17.20
2022-10-07T21:11:20.872Z,17.10
2022-10-07T21:13:47.766Z,17.10
2022-10-07T21:16:15.291Z,17.00
2022-10-07T21:18:42.204Z,17.00
2022-10-07T21:21:10.348Z,17.00
2022-10-07T21:23:37.901Z,17.00
2022-10-07T21:26:07.191Z,17.10
2022-10-07T21:28:36.618Z,17.10
2022-10-07T21:31:05.070Z,17.00
2022-10-07T21:33:32.472Z,17.00
2022-10-07T21:36:04.188Z,17.00
2022-10-07T21:38:33.665Z,17.00
2022-10-07T21:41:01.172Z,16.90
2022-10-07T21:43:28.216Z,16.90
2022-10-07T21:45:58.885Z,16.90
2022-10-07T21:48:26.092Z,16.90
2022-10-07T21:50:56.284Z,16.90
2022-10-07T21:53:23.113Z,16.90
2022-10-07T21:55:50.252Z,16.90
2022-10-07T21:58:17.255Z,16.90
2022-10-07T22:00:44.114Z,16.80
2022-10-07T22:03:11.045Z,16.80
2022-10-07T22:05:41.131Z,16.80
2022-10-07T22:08:30.223Z,16.70
2022-10-07T22:11:16.256Z,16.70
2022-10-07T22:13:44.532Z,16.80
2022-10-07T22:16:14.878Z,16.60
2022-10-07T22:18:42.951Z,16.70
2022-10-07T22:21:12.854Z,16.70
2022-10-07T22:23:40.414Z,16.70
2022-10-07T22:26:09.405Z,16.70
2022-10-07T22:28:37.555Z,16.70
2022-10-07T22:31:04.942Z,16.60
2022-10-07T22:33:31.676Z,16.70
2022-10-07T22:35:59.357Z,16.70
2022-10-07T22:38:26.163Z,16.70
2022-10-07T22:40:52.919Z,16.60
2022-10-07T22:43:19.668Z,16.50
2022-10-07T22:45:56.990Z,16.60
2022-10-07T22:48:24.256Z,16.60
2022-10-07T22:50:51.131Z,16.60
2022-10-07T22:53:17.892Z,16.60
2022-10-07T22:55:45.157Z,16.60
2022-10-07T22:58:12.208Z,16.60
2022-10-07T23:00:39.043Z,16.70
2022-10-07T23:03:05.876Z,16.60
2022-10-07T23:05:38.507Z,16.50
2022-10-07T23:08:05.279Z,16.50
2022-10-07T23:10:32.044Z,16.40
2022-10-07T23:13:00.726Z,16.40
2022-10-07T23:15:27.448Z,16.40
2022-10-07T23:17:54.205Z,16.50
2022-10-07T23:20:25.680Z,16.50
2022-10-07T23:22:52.459Z,16.50
2022-10-07T23:25:19.215Z,16.50
2022-10-07T23:27:45.987Z,16.50
2022-10-07T23:30:12.851Z,16.60
2022-10-07T23:32:39.610Z,16.50
2022-10-07T23:35:06.423Z,16.50
2022-10-07T23:37:33.187Z,16.50
2022-10-07T23:39:59.897Z,16.40
2022-10-07T23:42:26.625Z,16.40
2022-10-07T23:44:53.345Z,16.40
2022-10-07T23:47:22.837Z,16.40
2022-10-07T23:49:49.607Z,16.40
2022-10-07T23:52:16.380Z,16.40
2022-10-07T23:54:43.236Z,16.40
2022-10-07T23:57:09.942Z,16.50
2022-10-07T23:59:36.689Z,16.30
